Flight Briefing for CMB856

Departure Arrival
Daniel K Inouye International Airport (PHNL)
Click to view FAA NOTAMS
Guam International Airport (PGUM)
Click to view FAA NOTAMS
Departure Time Arrival Time
N/A N/A
Aircraft Distance
B757-200SF 3303nm
Departure METAR Arrival METAR
PHNL 221053Z 06012KT 10SM FEW025 23/16 A3011 RMK AO2 SLP196 T02330161 PGUM 221054Z 05005KT 10SM FEW065 26/22 A2989 RMK AO2 SLP112 T02610217
Suggested Route
KEOLA2 KATHS HOOPA A450 DEWSS A450 UNZ


View recent IFR Routes data
Notes
USTRANSCOM CONTRACT FLIGHT | PAYLOAD RESTRICTED | ETOPS

Charts and Procedures

Charts for PHNL
No chart available
Charts for PGUM
No chart available

Windy.com Weather Map